createdAt,value
2022-07-26T00:00:18.248Z,23.85
2022-07-26T00:01:18.406Z,23.97
2022-07-26T00:02:18.638Z,23.85
2022-07-26T00:03:18.267Z,23.84
2022-07-26T00:04:18.265Z,23.84
2022-07-26T00:05:18.274Z,23.80
2022-07-26T00:06:19.089Z,23.90
2022-07-26T00:07:18.276Z,23.83
2022-07-26T00:08:18.275Z,23.79
2022-07-26T00:09:18.280Z,23.87
2022-07-26T00:10:18.285Z,23.85
2022-07-26T00:11:18.289Z,23.87
2022-07-26T00:12:18.290Z,23.65
2022-07-26T00:13:18.297Z,23.76
2022-07-26T00:14:18.293Z,23.72
2022-07-26T00:15:18.296Z,23.76
2022-07-26T00:16:18.357Z,23.68
2022-07-26T00:17:18.304Z,23.66
2022-07-26T00:18:18.302Z,23.58
2022-07-26T00:19:18.311Z,23.55
2022-07-26T00:20:18.315Z,23.54
2022-07-26T00:21:18.319Z,23.58
2022-07-26T00:22:18.321Z,23.53
2022-07-26T00:23:18.324Z,23.55
2022-07-26T00:24:18.327Z,23.58
2022-07-26T00:25:18.331Z,23.58
2022-07-26T00:26:18.329Z,23.54
2022-07-26T00:27:18.339Z,23.61
2022-07-26T00:28:18.335Z,23.54
2022-07-26T00:29:18.347Z,23.54
2022-07-26T00:30:18.346Z,23.54
2022-07-26T00:31:18.413Z,23.58
2022-07-26T00:32:18.348Z,23.48
2022-07-26T00:33:18.356Z,23.54
2022-07-26T00:34:18.360Z,23.55
2022-07-26T00:35:18.365Z,23.53
2022-07-26T00:36:18.363Z,23.54
2022-07-26T00:37:20.663Z,23.57
2022-07-26T00:38:18.370Z,23.50
2022-07-26T00:39:18.375Z,23.57
2022-07-26T00:40:18.383Z,23.48
2022-07-26T00:41:18.384Z,23.51
2022-07-26T00:42:18.381Z,23.48
2022-07-26T00:43:18.383Z,23.53
2022-07-26T00:44:18.386Z,23.53
2022-07-26T00:45:18.403Z,23.47
2022-07-26T00:46:18.464Z,23.51
2022-07-26T00:47:18.395Z,23.48
2022-07-26T00:48:18.406Z,23.53
2022-07-26T00:49:18.515Z,23.43
2022-07-26T00:50:18.404Z,23.48
2022-07-26T00:51:18.416Z,23.48
2022-07-26T00:52:18.410Z,23.50
2022-07-26T00:53:18.417Z,23.48
2022-07-26T00:54:18.421Z,23.53
2022-07-26T00:55:18.428Z,23.54
2022-07-26T00:56:18.425Z,23.55
2022-07-26T00:57:18.427Z,23.57
2022-07-26T00:58:18.483Z,23.58
2022-07-26T00:59:18.433Z,23.58
2022-07-26T01:00:18.438Z,23.57
2022-07-26T01:01:18.500Z,23.58
2022-07-26T01:02:18.527Z,23.50
2022-07-26T01:03:18.443Z,23.42
2022-07-26T01:04:18.448Z,23.46
2022-07-26T01:05:18.452Z,23.46
2022-07-26T01:06:18.454Z,23.46
2022-07-26T01:07:18.459Z,23.46
2022-07-26T01:08:18.460Z,23.40
2022-07-26T01:09:18.461Z,23.50
2022-07-26T01:10:18.469Z,23.47
2022-07-26T01:11:18.469Z,23.39
2022-07-26T01:12:18.471Z,23.46
2022-07-26T01:13:18.478Z,23.39
2022-07-26T01:14:18.483Z,23.40
2022-07-26T01:15:18.484Z,23.42
2022-07-26T01:16:18.550Z,23.39
2022-07-26T01:17:18.488Z,23.36
2022-07-26T01:18:18.489Z,23.32
2022-07-26T01:19:18.490Z,23.32
2022-07-26T01:20:18.494Z,23.25
2022-07-26T01:21:18.495Z,23.35
2022-07-26T01:22:18.502Z,23.32
2022-07-26T01:23:18.503Z,23.36
2022-07-26T01:24:18.505Z,23.27
2022-07-26T01:25:18.511Z,23.22
2022-07-26T01:26:18.525Z,23.28
2022-07-26T01:27:18.517Z,23.28
2022-07-26T01:28:19.960Z,23.28
2022-07-26T01:29:18.529Z,23.20
2022-07-26T01:30:18.530Z,23.22
2022-07-26T01:31:18.577Z,23.17
2022-07-26T01:32:18.533Z,23.28
2022-07-26T01:33:18.542Z,23.28
2022-07-26T01:34:18.543Z,23.20
2022-07-26T01:35:18.544Z,23.23
2022-07-26T01:36:18.550Z,23.23
2022-07-26T01:37:18.547Z,23.25
2022-07-26T01:38:18.554Z,23.23
2022-07-26T01:39:18.557Z,23.20
2022-07-26T01:40:18.558Z,23.23
2022-07-26T01:41:18.559Z,23.28
2022-07-26T01:42:18.568Z,23.28
2022-07-26T01:43:18.566Z,23.25
2022-07-26T01:44:18.567Z,23.23
2022-07-26T01:45:18.572Z,23.32
2022-07-26T01:46:18.644Z,23.28
2022-07-26T01:47:18.578Z,23.27
2022-07-26T01:48:18.578Z,23.25
2022-07-26T01:49:18.687Z,23.15
2022-07-26T01:50:18.584Z,23.19
2022-07-26T01:51:18.592Z,23.25
2022-07-26T01:52:18.597Z,23.22
2022-07-26T01:53:18.594Z,23.27
2022-07-26T01:54:22.498Z,23.16
2022-07-26T01:55:18.613Z,23.27
2022-07-26T01:56:18.603Z,23.23
2022-07-26T01:57:18.607Z,23.28
2022-07-26T01:58:18.627Z,23.15
2022-07-26T01:59:18.614Z,23.20
2022-07-26T02:00:18.619Z,23.25
2022-07-26T02:01:39.073Z,23.36
2022-07-26T02:02:18.783Z,23.32
2022-07-26T02:03:18.720Z,23.35
2022-07-26T02:04:18.626Z,23.36
2022-07-26T02:05:18.630Z,23.36
2022-07-26T02:06:18.634Z,23.38
2022-07-26T02:07:18.636Z,23.35
2022-07-26T02:08:18.660Z,23.35
2022-07-26T02:09:18.646Z,23.36
2022-07-26T02:10:18.652Z,23.25
2022-07-26T02:11:18.648Z,23.23
2022-07-26T02:12:18.655Z,23.28
2022-07-26T02:13:18.657Z,23.23
2022-07-26T02:14:26.068Z,23.20
2022-07-26T02:15:18.661Z,23.20
2022-07-26T02:16:18.788Z,23.19
2022-07-26T02:17:18.665Z,23.16
2022-07-26T02:18:18.697Z,23.17
2022-07-26T02:19:18.690Z,23.25
2022-07-26T02:20:18.715Z,23.22
2022-07-26T02:21:18.702Z,23.27
2022-07-26T02:22:18.698Z,23.25
2022-07-26T02:23:18.685Z,23.28
2022-07-26T02:24:18.693Z,23.23
2022-07-26T02:25:18.701Z,23.22
2022-07-26T02:26:18.701Z,23.15
2022-07-26T02:27:18.701Z,23.17
2022-07-26T02:28:18.713Z,23.22
2022-07-26T02:29:18.702Z,23.20
2022-07-26T02:30:18.709Z,23.31
2022-07-26T02:31:18.807Z,23.22
2022-07-26T02:32:18.721Z,23.22
2022-07-26T02:33:18.717Z,23.16
2022-07-26T02:34:18.720Z,23.23
2022-07-26T02:35:18.718Z,23.19
2022-07-26T02:36:18.718Z,23.22
2022-07-26T02:37:18.723Z,23.27
2022-07-26T02:38:18.728Z,23.17
2022-07-26T02:39:18.729Z,23.22
2022-07-26T02:40:19.574Z,23.19
2022-07-26T02:41:18.735Z,23.05
2022-07-26T02:42:18.738Z,23.05
2022-07-26T02:43:18.739Z,23.12
2022-07-26T02:44:18.746Z,23.02
2022-07-26T02:45:18.747Z,23.00
2022-07-26T02:46:18.868Z,23.00
2022-07-26T02:47:18.751Z,23.10
2022-07-26T02:48:18.758Z,23.00
2022-07-26T02:49:18.825Z,23.09
2022-07-26T02:50:18.794Z,22.92
2022-07-26T02:51:18.771Z,22.91
2022-07-26T02:52:18.772Z,22.91
2022-07-26T02:53:18.771Z,22.90
2022-07-26T02:54:18.775Z,22.90
2022-07-26T02:55:18.776Z,22.86
2022-07-26T02:56:18.778Z,22.91
2022-07-26T02:57:18.786Z,22.85
2022-07-26T02:58:18.787Z,22.91
2022-07-26T02:59:18.787Z,22.88
2022-07-26T03:00:18.796Z,22.83
2022-07-26T03:01:18.865Z,22.91
2022-07-26T03:02:18.851Z,22.92
2022-07-26T03:03:18.845Z,22.91
2022-07-26T03:04:18.800Z,22.85
2022-07-26T03:05:18.815Z,22.94
2022-07-26T03:06:18.813Z,22.90
2022-07-26T03:07:18.813Z,22.86
2022-07-26T03:08:18.817Z,22.85
2022-07-26T03:09:18.815Z,22.86
2022-07-26T03:10:18.823Z,22.76
2022-07-26T03:11:18.821Z,22.72
2022-07-26T03:12:18.826Z,22.80
2022-07-26T03:13:18.829Z,22.72
2022-07-26T03:14:18.845Z,22.73
2022-07-26T03:15:18.833Z,22.75
2022-07-26T03:16:22.728Z,22.73
2022-07-26T03:17:18.834Z,22.73
2022-07-26T03:18:18.839Z,22.75
2022-07-26T03:19:18.843Z,22.76
2022-07-26T03:20:18.846Z,22.73
2022-07-26T03:21:18.850Z,22.75
2022-07-26T03:22:18.854Z,22.61
2022-07-26T03:23:18.853Z,22.62
2022-07-26T03:24:18.857Z,22.61
2022-07-26T03:25:18.861Z,22.72
2022-07-26T03:26:18.865Z,22.67
2022-07-26T03:27:18.869Z,22.62
2022-07-26T03:28:19.623Z,22.61
2022-07-26T03:29:18.869Z,22.58
2022-07-26T03:30:24.716Z,22.62
2022-07-26T03:31:18.943Z,22.62
2022-07-26T03:32:18.879Z,22.58
2022-07-26T03:33:18.884Z,22.61
2022-07-26T03:34:18.893Z,22.58
2022-07-26T03:35:18.893Z,22.57
2022-07-26T03:36:18.891Z,22.57
2022-07-26T03:37:18.896Z,22.73
2022-07-26T03:38:18.897Z,22.75
2022-07-26T03:39:18.900Z,22.72
2022-07-26T03:40:18.899Z,22.70
2022-07-26T03:41:18.904Z,22.61
2022-07-26T03:42:18.904Z,22.67
2022-07-26T03:43:22.821Z,22.68
2022-07-26T03:44:18.911Z,22.57
2022-07-26T03:45:18.917Z,22.57
2022-07-26T03:46:18.983Z,22.62
2022-07-26T03:47:18.924Z,22.58
2022-07-26T03:48:18.923Z,22.58
2022-07-26T03:49:19.022Z,22.54
2022-07-26T03:50:18.931Z,22.60
2022-07-26T03:51:18.934Z,22.57
2022-07-26T03:52:18.936Z,22.70
2022-07-26T03:53:18.936Z,22.64
2022-07-26T03:54:18.944Z,22.65
2022-07-26T03:55:18.943Z,22.67
2022-07-26T03:56:18.949Z,22.72
2022-07-26T03:57:18.942Z,22.76
2022-07-26T03:58:18.952Z,22.73
2022-07-26T03:59:18.955Z,22.65
2022-07-26T04:00:18.951Z,22.75
2022-07-26T04:01:19.049Z,22.75
2022-07-26T04:02:19.064Z,22.77
2022-07-26T04:03:18.965Z,22.77
2022-07-26T04:04:18.968Z,22.72
2022-07-26T04:05:23.365Z,22.55
2022-07-26T04:06:18.969Z,22.61
2022-07-26T04:07:18.985Z,22.60
2022-07-26T04:08:18.978Z,22.61
2022-07-26T04:09:18.977Z,22.57
2022-07-26T04:10:18.980Z,22.58
2022-07-26T04:11:18.986Z,22.52
2022-07-26T04:12:18.983Z,22.54
2022-07-26T04:13:18.986Z,22.55
2022-07-26T04:14:18.994Z,22.60
2022-07-26T04:15:19.200Z,22.60
2022-07-26T04:16:18.998Z,22.65
2022-07-26T04:17:19.110Z,22.67
2022-07-26T04:18:19.006Z,22.72
2022-07-26T04:19:19.008Z,22.64
2022-07-26T04:20:19.015Z,22.61
2022-07-26T04:21:19.011Z,22.57
2022-07-26T04:22:19.015Z,22.49
2022-07-26T04:23:19.015Z,22.60
2022-07-26T04:24:19.017Z,22.60
2022-07-26T04:25:19.022Z,22.57
2022-07-26T04:26:19.029Z,22.61
2022-07-26T04:27:19.025Z,22.57
2022-07-26T04:28:19.029Z,22.55
2022-07-26T04:29:19.032Z,22.52
2022-07-26T04:30:19.043Z,22.61
2022-07-26T04:31:19.092Z,22.55
2022-07-26T04:32:19.040Z,22.46
2022-07-26T04:33:19.044Z,22.57
2022-07-26T04:34:19.046Z,22.55
2022-07-26T04:35:19.048Z,22.60
2022-07-26T04:36:19.050Z,22.62
2022-07-26T04:37:19.054Z,22.72
2022-07-26T04:38:19.054Z,22.64
2022-07-26T04:39:19.058Z,22.75
2022-07-26T04:40:21.049Z,22.58
2022-07-26T04:41:19.062Z,22.72
2022-07-26T04:42:19.061Z,22.60
2022-07-26T04:43:19.069Z,22.62
2022-07-26T04:44:19.070Z,22.60
2022-07-26T04:45:19.071Z,22.65
2022-07-26T04:46:19.194Z,22.70
2022-07-26T04:47:19.074Z,22.72
2022-07-26T04:48:19.077Z,22.73
2022-07-26T04:49:19.145Z,22.68
2022-07-26T04:50:19.088Z,22.60
2022-07-26T04:51:19.090Z,22.62
2022-07-26T04:52:19.090Z,22.64
2022-07-26T04:53:19.096Z,22.62
2022-07-26T04:54:19.095Z,22.62
2022-07-26T04:55:19.102Z,22.58
2022-07-26T04:56:19.100Z,22.72
2022-07-26T04:57:19.102Z,22.76
2022-07-26T04:58:19.249Z,22.75
2022-07-26T04:59:21.838Z,22.82
2022-07-26T05:00:23.592Z,22.80
2022-07-26T05:01:19.210Z,22.80
2022-07-26T05:02:19.265Z,22.82
2022-07-26T05:03:19.250Z,22.77
2022-07-26T05:04:19.121Z,22.75
2022-07-26T05:05:19.126Z,22.79
2022-07-26T05:06:19.129Z,22.73
2022-07-26T05:07:19.132Z,22.85
2022-07-26T05:08:19.136Z,22.91
2022-07-26T05:09:19.138Z,22.88
2022-07-26T05:10:19.139Z,23.01
2022-07-26T05:11:19.146Z,22.91
2022-07-26T05:12:19.144Z,22.88
2022-07-26T05:13:23.059Z,22.92
2022-07-26T05:14:19.146Z,22.95
2022-07-26T05:15:19.152Z,23.00
2022-07-26T05:16:19.183Z,22.98
2022-07-26T05:17:19.203Z,23.09
2022-07-26T05:18:19.154Z,23.01
2022-07-26T05:19:19.159Z,22.97
2022-07-26T05:20:19.165Z,23.00
2022-07-26T05:21:19.165Z,23.00
2022-07-26T05:22:19.169Z,23.02
2022-07-26T05:23:19.168Z,23.01
2022-07-26T05:24:19.172Z,23.12
2022-07-26T05:25:19.172Z,23.22
2022-07-26T05:26:19.180Z,23.12
2022-07-26T05:27:19.185Z,23.17
2022-07-26T05:28:19.185Z,23.04
2022-07-26T05:29:19.194Z,23.19
2022-07-26T05:30:19.191Z,23.17
2022-07-26T05:31:19.273Z,23.12
2022-07-26T05:32:19.192Z,23.16
2022-07-26T05:33:19.202Z,23.25
2022-07-26T05:34:19.203Z,23.16
2022-07-26T05:35:19.205Z,23.19
2022-07-26T05:36:19.205Z,23.12
2022-07-26T05:37:19.215Z,23.15
2022-07-26T05:38:19.222Z,23.22
2022-07-26T05:39:19.214Z,23.09
2022-07-26T05:40:19.213Z,23.09
2022-07-26T05:41:19.220Z,23.27
2022-07-26T05:42:19.221Z,23.13
2022-07-26T05:43:19.228Z,23.20
2022-07-26T05:44:19.225Z,23.32
2022-07-26T05:45:19.232Z,23.22
2022-07-26T05:46:19.266Z,23.15
2022-07-26T05:47:19.232Z,23.25
2022-07-26T05:48:19.237Z,23.35
2022-07-26T05:49:19.314Z,23.35
2022-07-26T05:50:19.242Z,23.28
2022-07-26T05:51:19.250Z,23.40
2022-07-26T05:52:19.246Z,23.32
2022-07-26T05:53:19.247Z,23.35
2022-07-26T05:54:19.260Z,23.35
2022-07-26T05:55:19.252Z,23.35
2022-07-26T05:56:19.258Z,23.33
2022-07-26T05:57:19.305Z,23.39
2022-07-26T05:58:19.264Z,23.39
2022-07-26T05:59:19.271Z,23.39
2022-07-26T06:00:19.262Z,23.47
2022-07-26T06:01:19.454Z,23.33
2022-07-26T06:02:19.346Z,23.40
2022-07-26T06:03:19.325Z,23.40
2022-07-26T06:04:19.315Z,23.53
2022-07-26T06:05:19.280Z,23.50
2022-07-26T06:06:19.283Z,23.60
2022-07-26T06:07:19.288Z,23.60
2022-07-26T06:08:19.292Z,23.54
2022-07-26T06:09:19.292Z,23.66
2022-07-26T06:10:19.294Z,23.68
2022-07-26T06:11:19.298Z,23.70
2022-07-26T06:12:19.296Z,23.87
2022-07-26T06:13:19.307Z,23.84
2022-07-26T06:14:19.310Z,23.76
2022-07-26T06:15:19.313Z,23.85
2022-07-26T06:16:19.312Z,23.94
2022-07-26T06:17:19.419Z,23.85
2022-07-26T06:18:19.320Z,23.93
2022-07-26T06:19:19.319Z,23.97
2022-07-26T06:20:19.321Z,24.00
2022-07-26T06:21:19.330Z,24.06
2022-07-26T06:22:19.333Z,24.03
2022-07-26T06:23:33.590Z,24.08
2022-07-26T06:24:19.333Z,23.98
2022-07-26T06:25:19.344Z,24.08
2022-07-26T06:26:19.344Z,24.24
2022-07-26T06:27:19.344Z,24.25
2022-07-26T06:28:19.342Z,24.35
2022-07-26T06:29:19.349Z,24.31
2022-07-26T06:30:19.348Z,24.25
2022-07-26T06:31:19.430Z,24.28
2022-07-26T06:32:19.354Z,24.06
2022-07-26T06:33:19.359Z,23.98
2022-07-26T06:34:19.360Z,23.95
2022-07-26T06:35:19.367Z,24.03
2022-07-26T06:36:19.366Z,24.15
2022-07-26T06:37:19.379Z,24.27
2022-07-26T06:38:19.373Z,24.12
2022-07-26T06:39:19.377Z,24.28
2022-07-26T06:40:19.376Z,24.37
2022-07-26T06:41:19.385Z,24.31
2022-07-26T06:42:19.384Z,24.39
2022-07-26T06:43:19.385Z,24.45
2022-07-26T06:44:19.385Z,24.53
2022-07-26T06:45:19.395Z,24.53
2022-07-26T06:46:19.573Z,24.53
2022-07-26T06:47:19.398Z,24.65
2022-07-26T06:48:19.405Z,24.62
2022-07-26T06:49:22.424Z,24.68
2022-07-26T06:50:20.857Z,24.78
2022-07-26T06:51:19.415Z,24.69
2022-07-26T06:52:19.419Z,24.65
2022-07-26T06:53:19.415Z,24.80
2022-07-26T06:54:19.414Z,24.87
2022-07-26T06:55:19.420Z,24.88
2022-07-26T06:56:19.422Z,24.88
2022-07-26T06:57:19.426Z,24.90
2022-07-26T06:58:19.429Z,24.84
2022-07-26T06:59:19.429Z,24.85
2022-07-26T07:00:19.461Z,24.81
2022-07-26T07:01:58.752Z,24.93
2022-07-26T07:02:19.440Z,24.93
2022-07-26T07:03:19.494Z,25.15
2022-07-26T07:04:19.475Z,25.23
2022-07-26T07:05:19.548Z,25.24
2022-07-26T07:06:19.455Z,25.23
2022-07-26T07:07:19.457Z,25.30
2022-07-26T07:08:19.460Z,25.38
2022-07-26T07:09:19.467Z,25.57
2022-07-26T07:10:19.469Z,25.67
2022-07-26T07:11:19.470Z,25.67
2022-07-26T07:12:19.470Z,25.62
2022-07-26T07:13:19.477Z,25.77
2022-07-26T07:14:19.476Z,25.87
2022-07-26T07:15:19.476Z,25.83
2022-07-26T07:16:19.523Z,25.82
2022-07-26T07:17:20.346Z,25.91
2022-07-26T07:18:19.492Z,26.01
2022-07-26T07:19:19.495Z,26.12
2022-07-26T07:20:19.496Z,26.21
2022-07-26T07:21:19.502Z,26.23
2022-07-26T07:22:19.503Z,26.12
2022-07-26T07:23:19.504Z,26.10
2022-07-26T07:24:19.509Z,26.07
2022-07-26T07:25:22.052Z,25.95
2022-07-26T07:26:19.513Z,26.12
2022-07-26T07:27:19.516Z,25.98
2022-07-26T07:28:19.520Z,26.06
2022-07-26T07:29:19.527Z,26.10
2022-07-26T07:30:19.523Z,25.95
2022-07-26T07:31:19.610Z,25.87
2022-07-26T07:32:19.929Z,25.76
2022-07-26T07:33:22.747Z,25.85
2022-07-26T07:34:19.820Z,25.91
2022-07-26T07:35:19.546Z,25.97
2022-07-26T07:36:19.549Z,26.10
2022-07-26T07:37:20.008Z,26.10
2022-07-26T07:38:19.558Z,26.23
2022-07-26T07:39:19.558Z,26.20
2022-07-26T07:40:19.559Z,26.20
2022-07-26T07:41:19.565Z,26.25
2022-07-26T07:42:19.617Z,26.36
2022-07-26T07:43:19.580Z,26.44
2022-07-26T07:44:19.572Z,26.39
2022-07-26T07:45:19.576Z,26.48
2022-07-26T07:46:19.610Z,26.62
2022-07-26T07:47:19.582Z,26.60
2022-07-26T07:48:19.599Z,26.67
2022-07-26T07:49:19.636Z,26.69
2022-07-26T07:50:19.606Z,26.65
2022-07-26T07:51:19.598Z,26.75
2022-07-26T07:52:19.601Z,26.82
2022-07-26T07:53:19.917Z,26.80
2022-07-26T07:54:19.609Z,26.58
2022-07-26T07:55:37.777Z,26.94
2022-07-26T07:56:19.618Z,27.07
2022-07-26T07:57:19.622Z,26.97
2022-07-26T07:58:19.624Z,27.04
2022-07-26T07:59:19.631Z,26.88
2022-07-26T08:00:19.635Z,26.97
2022-07-26T08:01:19.709Z,27.63
2022-07-26T08:02:19.631Z,28.27
2022-07-26T08:03:19.642Z,28.64
2022-07-26T08:04:19.695Z,29.09
2022-07-26T08:05:19.651Z,29.53
2022-07-26T08:06:19.653Z,29.98
2022-07-26T08:07:19.663Z,30.13
2022-07-26T08:08:22.197Z,30.42
2022-07-26T08:09:19.671Z,30.91
2022-07-26T08:10:19.788Z,31.34
2022-07-26T08:11:19.676Z,31.29
2022-07-26T08:12:19.679Z,31.04
2022-07-26T08:13:21.257Z,30.97
2022-07-26T08:14:19.703Z,30.99
2022-07-26T08:15:21.248Z,31.06
2022-07-26T08:16:19.746Z,31.29
2022-07-26T08:17:19.713Z,31.93
2022-07-26T08:18:20.161Z,32.44
2022-07-26T08:19:19.724Z,32.15
2022-07-26T08:20:19.728Z,31.70
2022-07-26T08:21:19.737Z,32.13
2022-07-26T08:23:02.305Z,32.72
2022-07-26T08:24:02.309Z,33.00
2022-07-26T08:25:02.312Z,33.56
2022-07-26T08:26:06.597Z,33.49
2022-07-26T08:27:02.320Z,32.69
2022-07-26T08:28:04.078Z,32.51
2022-07-26T08:29:02.339Z,32.15
2022-07-26T08:30:02.346Z,31.73
2022-07-26T08:31:02.415Z,31.69
2022-07-26T08:32:02.443Z,31.50
2022-07-26T08:33:02.374Z,31.21
2022-07-26T08:34:02.384Z,31.72
2022-07-26T08:35:17.736Z,32.32
2022-07-26T08:36:02.399Z,32.62
2022-07-26T08:37:18.266Z,32.28
2022-07-26T08:38:02.438Z,32.00
2022-07-26T08:39:02.430Z,31.68
2022-07-26T08:40:02.433Z,31.44
2022-07-26T08:41:02.451Z,31.09
2022-07-26T08:42:02.452Z,30.84
2022-07-26T08:43:02.463Z,30.37
2022-07-26T08:44:02.473Z,30.16
2022-07-26T08:45:02.481Z,29.87
2022-07-26T08:46:02.489Z,29.70
2022-07-26T08:47:02.597Z,29.51
2022-07-26T08:48:18.733Z,29.41
2022-07-26T08:49:02.589Z,29.15
2022-07-26T08:50:02.520Z,28.98
2022-07-26T08:51:02.530Z,28.96
2022-07-26T08:52:02.535Z,28.74
2022-07-26T08:53:02.549Z,28.70
2022-07-26T08:54:05.729Z,28.76
2022-07-26T08:55:02.567Z,28.86
2022-07-26T08:56:07.353Z,29.08
2022-07-26T08:57:02.579Z,29.95
2022-07-26T08:58:02.582Z,30.00
2022-07-26T08:59:02.595Z,29.80
2022-07-26T09:00:02.601Z,29.70
2022-07-26T09:01:02.666Z,29.63
2022-07-26T09:02:02.612Z,29.27
2022-07-26T09:03:02.625Z,29.19
2022-07-26T09:04:02.726Z,29.02
2022-07-26T09:05:02.638Z,28.74
2022-07-26T09:06:02.644Z,28.41
2022-07-26T09:07:02.658Z,28.27
2022-07-26T09:08:02.658Z,28.22
2022-07-26T09:09:02.665Z,28.19
2022-07-26T09:10:02.683Z,28.04
2022-07-26T09:11:02.686Z,27.99
2022-07-26T09:12:02.687Z,27.92
2022-07-26T09:13:02.696Z,27.94
2022-07-26T09:14:02.705Z,28.07
2022-07-26T09:15:02.710Z,28.27
2022-07-26T09:16:02.818Z,28.34
2022-07-26T09:17:02.729Z,28.33
2022-07-26T09:18:02.735Z,28.37
2022-07-26T09:19:02.735Z,28.43
2022-07-26T09:20:02.744Z,28.46
2022-07-26T09:21:02.749Z,28.44
2022-07-26T09:22:06.011Z,28.43
2022-07-26T09:23:02.764Z,28.41
2022-07-26T09:24:02.766Z,28.31
2022-07-26T09:25:02.780Z,28.34
2022-07-26T09:26:02.779Z,28.39
2022-07-26T09:27:02.790Z,28.37
2022-07-26T09:28:02.793Z,28.15
2022-07-26T09:29:02.801Z,28.66
2022-07-26T09:30:02.849Z,29.79
2022-07-26T09:31:02.858Z,29.90
2022-07-26T09:32:02.828Z,30.11
2022-07-26T09:33:02.829Z,29.97
2022-07-26T09:34:02.830Z,29.90
2022-07-26T09:35:02.838Z,29.78
2022-07-26T09:36:02.843Z,29.76
2022-07-26T09:37:02.853Z,29.45
2022-07-26T09:38:02.863Z,29.30
2022-07-26T09:39:02.867Z,29.26
2022-07-26T09:40:02.874Z,29.14
2022-07-26T09:41:02.881Z,29.21
2022-07-26T09:42:26.142Z,29.28
2022-07-26T09:43:02.893Z,29.43
2022-07-26T09:44:02.908Z,30.22
2022-07-26T09:45:02.918Z,31.43
2022-07-26T09:46:03.014Z,32.41
2022-07-26T09:47:02.918Z,32.33
2022-07-26T09:48:02.937Z,31.89
2022-07-26T09:49:11.460Z,31.53
2022-07-26T09:50:03.851Z,31.04
2022-07-26T09:51:02.961Z,30.65
2022-07-26T09:52:02.963Z,30.13
2022-07-26T09:53:02.963Z,29.76
2022-07-26T09:54:02.976Z,29.60
2022-07-26T09:55:02.980Z,29.39
2022-07-26T09:56:02.996Z,29.18
2022-07-26T09:57:03.008Z,29.14
2022-07-26T09:58:03.004Z,28.76
2022-07-26T09:59:03.022Z,28.73
2022-07-26T10:00:03.018Z,28.73
2022-07-26T10:01:03.031Z,28.56
2022-07-26T10:02:03.068Z,28.62
2022-07-26T10:03:03.064Z,28.59
2022-07-26T10:04:03.048Z,29.19
2022-07-26T10:05:03.056Z,29.89
2022-07-26T10:06:03.058Z,30.67
2022-07-26T10:07:03.070Z,30.65
2022-07-26T10:08:03.075Z,31.58
2022-07-26T10:09:03.083Z,32.77
2022-07-26T10:10:03.092Z,33.69
2022-07-26T10:11:03.096Z,34.61
2022-07-26T10:12:03.104Z,35.29
2022-07-26T10:13:03.120Z,36.27
2022-07-26T10:14:03.131Z,37.05
2022-07-26T10:15:03.132Z,37.91
2022-07-26T10:16:03.225Z,38.40
2022-07-26T10:17:03.152Z,38.91
2022-07-26T10:18:03.162Z,39.28
2022-07-26T10:19:03.174Z,39.04
2022-07-26T10:20:03.186Z,38.68
2022-07-26T10:21:03.199Z,37.62
2022-07-26T10:22:03.211Z,37.62
2022-07-26T10:23:03.225Z,37.78
2022-07-26T10:24:03.241Z,37.62
2022-07-26T10:25:03.249Z,37.44
2022-07-26T10:26:03.263Z,37.44
2022-07-26T10:27:03.286Z,37.10
2022-07-26T10:28:03.290Z,36.57
2022-07-26T10:29:03.304Z,36.09
2022-07-26T10:30:03.323Z,35.19
2022-07-26T10:31:03.370Z,34.82
2022-07-26T10:32:04.044Z,34.49
2022-07-26T10:33:03.362Z,33.84
2022-07-26T10:34:06.759Z,33.54
2022-07-26T10:35:03.385Z,33.00
2022-07-26T10:36:03.397Z,32.75
2022-07-26T10:37:03.410Z,32.28
2022-07-26T10:38:03.422Z,32.13
2022-07-26T10:39:03.433Z,31.70
2022-07-26T10:40:03.445Z,31.47
2022-07-26T10:41:03.458Z,31.26
2022-07-26T10:42:03.474Z,31.12
2022-07-26T10:43:23.020Z,30.95
2022-07-26T10:44:03.495Z,30.70
2022-07-26T10:45:03.508Z,30.69
2022-07-26T10:46:03.582Z,31.07
2022-07-26T10:47:03.536Z,32.08
2022-07-26T10:48:03.554Z,32.88
2022-07-26T10:49:04.092Z,33.01
2022-07-26T10:50:03.568Z,33.18
2022-07-26T10:51:06.377Z,33.23
2022-07-26T10:52:03.595Z,33.16
2022-07-26T10:53:03.604Z,32.88
2022-07-26T10:54:03.613Z,32.70
2022-07-26T10:55:03.626Z,32.55
2022-07-26T10:56:03.634Z,32.06
2022-07-26T10:57:03.651Z,31.99
2022-07-26T10:58:03.656Z,31.99
2022-07-26T10:59:03.669Z,31.85
2022-07-26T11:00:03.687Z,31.32
2022-07-26T11:01:03.699Z,31.14
2022-07-26T11:02:03.772Z,30.99
2022-07-26T11:03:03.758Z,31.10
2022-07-26T11:04:03.728Z,31.06
2022-07-26T11:05:03.738Z,30.64
2022-07-26T11:06:03.751Z,30.55
2022-07-26T11:07:03.762Z,30.51
2022-07-26T11:08:03.768Z,30.42
2022-07-26T11:09:03.831Z,30.47
2022-07-26T11:10:03.789Z,30.37
2022-07-26T11:11:03.799Z,30.29
2022-07-26T11:12:03.808Z,30.43
2022-07-26T11:13:03.821Z,30.43
2022-07-26T11:14:03.826Z,30.75
2022-07-26T11:15:03.835Z,31.85
2022-07-26T11:16:03.905Z,32.88
2022-07-26T11:17:03.861Z,33.97
2022-07-26T11:18:03.875Z,34.84
2022-07-26T11:19:03.879Z,35.70
2022-07-26T11:20:03.883Z,36.20
2022-07-26T11:21:03.902Z,36.85
2022-07-26T11:22:03.905Z,37.24
2022-07-26T11:23:03.918Z,37.84
2022-07-26T11:24:03.933Z,38.30
2022-07-26T11:25:03.942Z,38.69
2022-07-26T11:26:03.948Z,39.04
2022-07-26T11:27:03.960Z,38.96
2022-07-26T11:28:07.105Z,39.30
2022-07-26T11:29:06.445Z,39.07
2022-07-26T11:30:03.998Z,39.10
2022-07-26T11:31:04.045Z,38.66
2022-07-26T11:32:14.737Z,38.78
2022-07-26T11:33:04.031Z,38.88
2022-07-26T11:34:04.055Z,38.98
2022-07-26T11:35:04.059Z,39.40
2022-07-26T11:36:04.071Z,39.64
2022-07-26T11:37:04.091Z,39.84
2022-07-26T11:38:11.754Z,40.25
2022-07-26T11:39:04.111Z,40.20
2022-07-26T11:40:04.143Z,39.66
2022-07-26T11:41:04.139Z,39.03
2022-07-26T11:42:04.148Z,38.65
2022-07-26T11:43:04.166Z,38.15
2022-07-26T11:44:04.186Z,37.79
2022-07-26T11:45:04.174Z,37.22
2022-07-26T11:46:04.236Z,36.93
2022-07-26T11:47:04.216Z,36.85
2022-07-26T11:48:04.229Z,37.34
2022-07-26T11:49:04.328Z,37.67
2022-07-26T11:50:17.035Z,37.43
2022-07-26T11:51:07.157Z,36.85
2022-07-26T11:52:04.275Z,36.39
2022-07-26T11:53:04.293Z,36.19
2022-07-26T11:54:04.303Z,35.96
2022-07-26T11:55:04.317Z,36.08
2022-07-26T11:56:04.330Z,36.50
2022-07-26T11:57:04.346Z,36.59
2022-07-26T11:58:04.381Z,36.22
2022-07-26T11:59:04.375Z,35.93
2022-07-26T12:00:04.383Z,35.71
2022-07-26T12:01:04.397Z,35.45
2022-07-26T12:02:04.414Z,35.09
2022-07-26T12:03:04.422Z,34.87
2022-07-26T12:04:04.595Z,34.44
2022-07-26T12:05:04.599Z,33.66
2022-07-26T12:06:04.461Z,33.12
2022-07-26T12:07:04.475Z,32.66
2022-07-26T12:08:04.774Z,32.41
2022-07-26T12:09:04.530Z,32.14
2022-07-26T12:10:04.559Z,32.06
2022-07-26T12:11:04.528Z,31.99
2022-07-26T12:12:04.535Z,31.65
2022-07-26T12:13:04.553Z,31.38
2022-07-26T12:14:04.562Z,31.10
2022-07-26T12:15:04.578Z,30.94
2022-07-26T12:16:04.744Z,30.53
2022-07-26T12:17:04.596Z,30.22
2022-07-26T12:18:04.609Z,29.97
2022-07-26T12:19:04.618Z,29.64
2022-07-26T12:20:04.725Z,29.39
2022-07-26T12:21:06.564Z,29.02
2022-07-26T12:22:04.652Z,28.98
2022-07-26T12:23:04.668Z,28.78
2022-07-26T12:24:04.670Z,28.56
2022-07-26T12:25:04.688Z,28.44
2022-07-26T12:26:09.776Z,28.31
2022-07-26T12:27:04.706Z,28.19
2022-07-26T12:28:04.713Z,28.18
2022-07-26T12:29:04.719Z,28.02
2022-07-26T12:30:04.731Z,27.99
2022-07-26T12:31:04.847Z,27.77
2022-07-26T12:32:07.728Z,27.65
2022-07-26T12:33:04.767Z,27.69
2022-07-26T12:34:04.769Z,27.65
2022-07-26T12:35:04.779Z,27.55
2022-07-26T12:36:04.782Z,27.55
2022-07-26T12:37:04.797Z,27.60
2022-07-26T12:38:04.805Z,27.62
2022-07-26T12:39:04.814Z,27.65
2022-07-26T12:40:04.854Z,27.74
2022-07-26T12:41:04.832Z,27.79
2022-07-26T12:42:04.842Z,27.65
2022-07-26T12:43:04.853Z,27.47
2022-07-26T12:44:04.861Z,27.22
2022-07-26T12:45:04.868Z,27.21
2022-07-26T12:46:04.963Z,27.04
2022-07-26T12:47:04.900Z,26.87
2022-07-26T12:48:04.887Z,26.75
2022-07-26T12:49:05.157Z,26.40
2022-07-26T12:50:04.940Z,25.92
2022-07-26T12:51:04.909Z,25.85
2022-07-26T12:52:04.919Z,25.55
2022-07-26T12:53:04.928Z,25.23